createdAt,value
2023-02-21T00:00:36.437Z,1.25
2023-02-21T00:03:22.517Z,2.25
2023-02-21T00:06:08.010Z,2.95
2023-02-21T00:08:53.718Z,2.13
2023-02-21T00:11:39.448Z,4.55
2023-02-21T00:14:25.045Z,2.70
2023-02-21T00:17:10.813Z,5.80
2023-02-21T00:19:57.253Z,2.30
2023-02-21T00:22:42.752Z,0.90
2023-02-21T00:25:28.082Z,2.33
2023-02-21T00:28:13.310Z,1.70
2023-02-21T00:30:58.989Z,2.92
2023-02-21T00:33:47.945Z,2.10
2023-02-21T00:36:36.762Z,1.95
2023-02-21T00:39:23.156Z,4.07
2023-02-21T00:42:08.879Z,4.05
2023-02-21T00:44:54.957Z,3.58
2023-02-21T00:47:44.108Z,2.08
2023-02-21T00:50:30.346Z,3.38
2023-02-21T00:53:15.889Z,3.70
2023-02-21T00:56:02.136Z,3.58
2023-02-21T00:58:47.582Z,1.73
2023-02-21T01:01:35.330Z,2.25
2023-02-21T01:04:21.262Z,3.30
2023-02-21T01:07:10.190Z,3.92
2023-02-21T01:09:58.864Z,4.72
2023-02-21T01:12:44.546Z,3.08
2023-02-21T01:15:30.244Z,3.85
2023-02-21T01:18:15.785Z,1.33
2023-02-21T01:21:01.718Z,3.85
2023-02-21T01:23:47.844Z,4.28
2023-02-21T01:26:33.712Z,1.98
2023-02-21T01:29:20.136Z,2.70
2023-02-21T01:32:05.533Z,4.80
2023-02-21T01:34:51.442Z,5.15
2023-02-21T01:37:37.212Z,2.10
2023-02-21T01:40:23.986Z,3.13
2023-02-21T01:43:09.692Z,6.45
2023-02-21T01:46:10.448Z,2.55
2023-02-21T01:48:56.429Z,4.45
2023-02-21T01:51:47.442Z,3.25
2023-02-21T01:54:33.817Z,3.50
2023-02-21T01:57:23.154Z,4.78
2023-02-21T02:00:10.640Z,4.95
2023-02-21T02:03:21.931Z,2.58
2023-02-21T02:06:26.217Z,4.05
2023-02-21T02:09:12.440Z,1.85
2023-02-21T02:12:19.733Z,1.52
2023-02-21T02:15:05.309Z,4.75
2023-02-21T02:18:02.498Z,4.85
2023-02-21T02:21:02.728Z,3.42
2023-02-21T02:23:43.356Z,1.33
2023-02-21T02:26:49.197Z,1.35
2023-02-21T02:30:02.476Z,2.20
2023-02-21T02:32:45.016Z,2.88
2023-02-21T02:35:23.588Z,5.68
2023-02-21T02:37:58.094Z,3.63
2023-02-21T02:40:47.019Z,2.20
2023-02-21T02:44:05.235Z,2.25
2023-02-21T02:46:35.616Z,4.85
2023-02-21T02:49:20.832Z,3.33
2023-02-21T02:51:48.879Z,2.70
2023-02-21T02:54:17.768Z,2.38
2023-02-21T02:56:49.053Z,2.72
2023-02-21T02:59:29.298Z,2.33
2023-02-21T03:01:56.800Z,4.50
2023-02-21T03:04:43.304Z,1.45
2023-02-21T03:07:41.187Z,2.47
2023-02-21T03:10:38.156Z,3.00
2023-02-21T03:13:09.835Z,2.28
2023-02-21T03:16:00.256Z,4.25
2023-02-21T03:18:30.581Z,3.25
2023-02-21T03:21:04.097Z,2.28
2023-02-21T03:23:37.624Z,1.88
2023-02-21T03:26:08.982Z,2.47
2023-02-21T03:28:37.912Z,4.03
2023-02-21T03:31:09.244Z,3.92
2023-02-21T03:33:36.667Z,4.18
2023-02-21T03:36:06.458Z,1.27
2023-02-21T03:38:35.626Z,3.65
2023-02-21T03:41:02.741Z,2.72
2023-02-21T03:43:36.292Z,3.97
2023-02-21T03:46:03.592Z,3.35
2023-02-21T03:48:40.664Z,2.72
2023-02-21T03:51:08.416Z,3.78
2023-02-21T03:53:35.636Z,1.70
2023-02-21T03:56:02.785Z,2.30
2023-02-21T03:58:32.908Z,4.22
2023-02-21T04:01:00.246Z,5.35
2023-02-21T04:03:27.337Z,7.18
2023-02-21T04:05:54.826Z,4.63
2023-02-21T04:08:24.965Z,3.80
2023-02-21T04:10:52.903Z,5.70
2023-02-21T04:13:21.265Z,7.05
2023-02-21T04:15:50.506Z,3.22
2023-02-21T04:18:18.095Z,3.45
2023-02-21T04:20:47.701Z,3.45
2023-02-21T04:23:19.963Z,2.75
2023-02-21T04:25:47.235Z,3.33
2023-02-21T04:28:21.311Z,3.28
2023-02-21T04:30:48.482Z,3.85
2023-02-21T04:33:15.804Z,5.30
2023-02-21T04:35:44.237Z,1.95
2023-02-21T04:38:11.568Z,4.22
2023-02-21T04:40:38.765Z,1.42
2023-02-21T04:43:05.767Z,2.17
2023-02-21T04:45:35.939Z,3.55
2023-02-21T04:48:03.412Z,2.47
2023-02-21T04:50:30.653Z,1.90
2023-02-21T04:53:00.043Z,2.33
2023-02-21T04:55:27.263Z,4.13
2023-02-21T04:57:54.488Z,3.53
2023-02-21T05:00:21.822Z,2.67
2023-02-21T05:02:49.003Z,3.20
2023-02-21T05:05:16.381Z,4.07
2023-02-21T05:07:46.820Z,2.20
2023-02-21T05:10:16.176Z,4.18
2023-02-21T05:12:45.114Z,3.45
2023-02-21T05:15:14.359Z,3.45
2023-02-21T05:17:41.965Z,2.95
2023-02-21T05:20:12.004Z,5.63
2023-02-21T05:22:43.053Z,5.72
2023-02-21T05:25:23.742Z,4.70
2023-02-21T05:27:53.132Z,4.05
2023-02-21T05:30:22.576Z,4.28
2023-02-21T05:32:50.444Z,4.55
2023-02-21T05:35:18.669Z,4.07
2023-02-21T05:37:46.085Z,3.30
2023-02-21T05:40:15.065Z,3.40
2023-02-21T05:42:43.598Z,4.82
2023-02-21T05:45:11.637Z,3.60
2023-02-21T05:47:39.200Z,3.88
2023-02-21T05:50:09.227Z,4.43
2023-02-21T05:52:36.518Z,7.38
2023-02-21T05:55:04.437Z,7.53
2023-02-21T05:57:31.604Z,4.82
2023-02-21T05:59:58.899Z,4.75
2023-02-21T06:02:26.278Z,5.80
2023-02-21T06:04:53.834Z,6.03
2023-02-21T06:07:24.323Z,7.15
2023-02-21T06:09:54.835Z,15.18
2023-02-21T06:12:27.797Z,5.45
2023-02-21T06:14:56.150Z,6.55
2023-02-21T06:17:24.643Z,8.65
2023-02-21T06:19:52.431Z,8.45
2023-02-21T06:22:19.441Z,9.48
2023-02-21T06:24:51.787Z,6.05
2023-02-21T06:27:19.463Z,6.90
2023-02-21T06:29:50.255Z,8.10
2023-02-21T06:32:18.122Z,6.70
2023-02-21T06:34:45.425Z,6.50
2023-02-21T06:37:12.634Z,7.80
2023-02-21T06:39:40.989Z,7.13
2023-02-21T06:42:15.601Z,9.57
2023-02-21T06:44:47.905Z,6.57
2023-02-21T06:47:15.643Z,5.38
2023-02-21T06:49:44.135Z,6.32
2023-02-21T06:52:11.983Z,12.73
2023-02-21T06:54:43.415Z,8.10
2023-02-21T06:57:16.548Z,6.32
2023-02-21T06:59:44.851Z,7.35
2023-02-21T07:02:20.724Z,7.78
2023-02-21T07:04:48.342Z,8.15
2023-02-21T07:07:16.281Z,7.43
2023-02-21T07:09:43.668Z,5.50
2023-02-21T07:12:21.934Z,6.53
2023-02-21T07:14:53.652Z,9.20
2023-02-21T07:17:46.558Z,7.32
2023-02-21T07:26:49.320Z,12.38
2023-02-21T07:29:17.798Z,8.70
2023-02-21T07:32:14.168Z,8.13
2023-02-21T07:34:49.635Z,9.68
2023-02-21T07:37:23.270Z,6.80
2023-02-21T07:39:54.185Z,7.55
2023-02-21T07:42:31.793Z,9.55
2023-02-21T07:45:27.041Z,10.38
2023-02-21T07:48:02.672Z,7.38
2023-02-21T07:50:36.779Z,7.40
2023-02-21T07:53:10.323Z,8.65
2023-02-21T07:55:48.806Z,7.93
2023-02-21T08:02:06.398Z,7.68
2023-02-21T08:04:38.894Z,8.63
2023-02-21T08:11:58.714Z,9.68
2023-02-21T08:17:49.496Z,7.32
2023-02-21T08:20:37.099Z,10.82
2023-02-21T08:24:38.138Z,10.75
2023-02-21T08:26:58.835Z,8.68
2023-02-21T08:29:35.620Z,9.68
2023-02-21T08:32:16.556Z,12.82
2023-02-21T08:38:16.507Z,7.88
2023-02-21T08:41:03.502Z,15.57
2023-02-21T08:46:34.822Z,13.80
2023-02-21T08:50:05.943Z,7.65
2023-02-21T08:56:36.330Z,12.70
2023-02-21T08:59:25.639Z,30.88
2023-02-21T09:03:01.915Z,24.83
2023-02-21T09:05:44.649Z,11.15
2023-02-21T09:09:23.047Z,12.98
2023-02-21T09:12:24.646Z,12.52
2023-02-21T09:15:53.157Z,11.68
2023-02-21T09:19:03.539Z,7.30
2023-02-21T09:21:37.558Z,8.68
2023-02-21T09:24:13.570Z,7.15
2023-02-21T09:26:53.371Z,10.48
2023-02-21T09:29:27.873Z,6.53
2023-02-21T09:32:29.075Z,7.07
2023-02-21T09:35:00.436Z,10.57
2023-02-21T09:37:34.462Z,7.38
2023-02-21T09:40:35.714Z,7.45
2023-02-21T09:43:47.950Z,7.15
2023-02-21T09:46:41.345Z,6.47
2023-02-21T09:50:03.143Z,10.10
2023-02-21T09:52:43.674Z,10.38
2023-02-21T09:55:39.896Z,9.95
2023-02-21T09:58:59.135Z,7.88
2023-02-21T10:02:03.342Z,6.80
2023-02-21T10:34:50.075Z,9.80
2023-02-21T10:41:31.684Z,6.90
2023-02-21T10:44:50.294Z,5.32
2023-02-21T10:47:47.347Z,5.80
2023-02-21T11:00:16.127Z,5.47
2023-02-21T11:02:58.018Z,10.18
2023-02-21T11:09:07.330Z,8.40
2023-02-21T11:11:52.028Z,7.35
2023-02-21T11:14:25.329Z,14.00
2023-02-21T11:17:38.633Z,9.05
2023-02-21T11:20:21.002Z,8.90
2023-02-21T11:23:17.880Z,8.80
2023-02-21T11:26:12.015Z,20.88
2023-02-21T11:28:52.507Z,23.52
2023-02-21T11:33:04.736Z,15.57
2023-02-21T11:34:39.349Z,10.23
2023-02-21T11:37:10.822Z,6.57
2023-02-21T11:39:40.357Z,7.47
2023-02-21T11:42:41.573Z,8.27
2023-02-21T11:45:42.050Z,9.00
2023-02-21T11:48:34.650Z,5.82
2023-02-21T11:51:48.614Z,8.07
2023-02-21T11:54:35.015Z,5.82
2023-02-21T11:57:46.444Z,7.57
2023-02-21T12:01:05.284Z,7.93
2023-02-21T12:03:53.137Z,9.30
2023-02-21T12:06:45.574Z,6.80
2023-02-21T12:09:38.968Z,9.75
2023-02-21T12:12:32.774Z,8.68
2023-02-21T12:18:14.118Z,9.13
2023-02-21T12:21:05.949Z,9.88
2023-02-21T12:24:51.606Z,13.02
2023-02-21T12:27:33.707Z,10.60
2023-02-21T12:30:09.270Z,16.42
2023-02-21T12:32:56.761Z,12.23
2023-02-21T12:35:45.472Z,11.77
2023-02-21T12:38:50.455Z,13.57
2023-02-21T12:42:04.277Z,11.45
2023-02-21T12:44:38.466Z,10.60
2023-02-21T12:47:18.562Z,10.70
2023-02-21T12:50:17.355Z,10.38
2023-02-21T12:53:13.689Z,10.65
2023-02-21T12:55:49.681Z,8.00
2023-02-21T12:59:25.323Z,7.13
2023-02-21T13:02:36.577Z,9.60
2023-02-21T13:05:51.678Z,8.85
2023-02-21T13:08:38.583Z,7.40
2023-02-21T13:12:17.131Z,11.73
2023-02-21T13:14:59.008Z,11.23
2023-02-21T13:22:00.581Z,8.32
2023-02-21T13:24:55.965Z,11.18
2023-02-21T13:27:46.920Z,6.72
2023-02-21T13:31:02.674Z,7.45
2023-02-21T13:33:55.129Z,7.82
2023-02-21T13:37:07.727Z,7.78
2023-02-21T13:39:49.171Z,12.05
2023-02-21T13:42:37.432Z,8.07
2023-02-21T13:45:48.568Z,9.10
2023-02-21T13:48:42.699Z,6.80
2023-02-21T13:52:00.723Z,6.70
2023-02-21T13:55:40.124Z,6.05
2023-02-21T13:58:22.252Z,7.75
2023-02-21T14:01:17.068Z,7.57
2023-02-21T14:03:49.432Z,7.78
2023-02-21T14:06:37.129Z,10.07
2023-02-21T14:09:25.504Z,7.32
2023-02-21T14:12:33.201Z,7.28
2023-02-21T14:15:09.865Z,8.05
2023-02-21T14:17:51.828Z,9.25
2023-02-21T14:20:53.333Z,9.00
2023-02-21T14:23:37.971Z,7.70
2023-02-21T14:26:25.957Z,7.68
2023-02-21T14:29:09.830Z,28.48
2023-02-21T14:32:01.945Z,13.52
2023-02-21T14:34:50.130Z,9.00
2023-02-21T14:37:44.240Z,8.80
2023-02-21T14:40:54.369Z,11.90
2023-02-21T14:47:33.832Z,7.18
2023-02-21T14:50:31.019Z,7.45
2023-02-21T14:53:41.865Z,7.72
2023-02-21T14:56:47.109Z,7.72
2023-02-21T14:59:48.338Z,9.15
2023-02-21T15:02:54.085Z,5.53
2023-02-21T15:05:47.748Z,7.45
2023-02-21T15:08:26.742Z,9.25
2023-02-21T15:13:36.368Z,10.20
2023-02-21T15:16:40.787Z,9.60
2023-02-21T15:19:23.030Z,6.55
2023-02-21T15:22:41.371Z,9.40
2023-02-21T15:25:37.156Z,6.90
2023-02-21T15:28:36.210Z,9.38
2023-02-21T15:31:14.994Z,6.80
2023-02-21T15:33:44.309Z,9.43
2023-02-21T15:36:27.343Z,7.35
2023-02-21T15:41:59.958Z,9.27
2023-02-21T15:44:37.280Z,7.43
2023-02-21T15:47:19.022Z,9.57
2023-02-21T15:50:02.642Z,10.13
2023-02-21T15:53:24.639Z,8.48
2023-02-21T15:57:02.858Z,11.82
2023-02-21T15:59:35.933Z,8.70
2023-02-21T16:02:59.811Z,9.73
2023-02-21T16:06:20.895Z,10.98
2023-02-21T16:08:30.808Z,12.93
2023-02-21T16:11:18.129Z,11.23
2023-02-21T16:17:55.436Z,8.88
2023-02-21T16:20:33.098Z,8.40
2023-02-21T16:23:39.087Z,9.02
2023-02-21T16:28:53.429Z,7.80
2023-02-21T16:34:50.867Z,12.68
2023-02-21T16:37:25.868Z,11.68
2023-02-21T16:39:58.492Z,8.35
2023-02-21T16:42:46.241Z,10.45
2023-02-21T16:45:19.709Z,13.07
2023-02-21T16:47:56.925Z,8.40
2023-02-21T16:50:34.353Z,12.43
2023-02-21T16:55:56.508Z,12.00
2023-02-21T16:58:30.690Z,19.48
2023-02-21T17:01:05.938Z,12.05
2023-02-21T17:03:59.354Z,72.25
2023-02-21T17:06:34.328Z,54.75
2023-02-21T17:09:22.505Z,27.27
2023-02-21T17:12:09.214Z,58.78
2023-02-21T17:14:40.536Z,38.28
2023-02-21T17:20:24.423Z,15.80
2023-02-21T17:23:04.833Z,12.90
2023-02-21T17:26:50.780Z,13.70
2023-02-21T17:29:26.201Z,12.88
2023-02-21T17:32:09.287Z,12.10
2023-02-21T17:34:57.167Z,12.25
2023-02-21T17:37:26.225Z,14.18
2023-02-21T17:40:02.295Z,11.85
2023-02-21T17:42:33.484Z,14.63
2023-02-21T17:45:02.454Z,14.63
2023-02-21T17:47:46.898Z,15.75
2023-02-21T17:50:15.418Z,11.50
2023-02-21T17:52:45.652Z,9.88
2023-02-21T17:55:31.741Z,13.15
2023-02-21T17:58:00.772Z,14.18
2023-02-21T18:00:40.846Z,15.95
2023-02-21T18:03:19.125Z,9.93
2023-02-21T18:05:49.812Z,15.15
2023-02-21T18:08:23.633Z,12.80
2023-02-21T18:10:53.123Z,10.88
2023-02-21T18:13:24.181Z,23.20
2023-02-21T18:16:11.251Z,21.65
2023-02-21T18:18:43.456Z,18.48
2023-02-21T18:24:24.315Z,18.33
2023-02-21T18:27:31.021Z,15.60
2023-02-21T18:30:03.321Z,16.33
2023-02-21T18:32:39.274Z,20.35
2023-02-21T18:35:07.316Z,16.00
2023-02-21T18:37:41.933Z,12.15
2023-02-21T18:40:14.387Z,10.82
2023-02-21T18:42:52.986Z,10.98
2023-02-21T18:45:39.061Z,11.35
2023-02-21T18:48:16.296Z,12.23
2023-02-21T18:50:59.075Z,13.77
2023-02-21T18:53:31.829Z,10.88
2023-02-21T18:56:09.740Z,14.38
2023-02-21T18:58:41.189Z,16.02
2023-02-21T19:01:11.809Z,17.27
2023-02-21T19:03:40.444Z,27.60
2023-02-21T19:06:16.366Z,20.25
2023-02-21T19:08:47.535Z,17.45
2023-02-21T19:11:16.101Z,36.35
2023-02-21T19:13:55.436Z,33.33
2023-02-21T19:16:28.409Z,26.88
2023-02-21T19:19:18.149Z,21.27
2023-02-21T19:24:44.643Z,20.25
2023-02-21T19:27:15.731Z,18.83
2023-02-21T19:32:59.178Z,14.48
2023-02-21T19:38:36.158Z,19.35
2023-02-21T19:41:09.053Z,17.92
2023-02-21T19:43:57.308Z,18.80
2023-02-21T19:46:45.034Z,19.17
2023-02-21T19:49:27.227Z,19.40
2023-02-21T19:51:59.628Z,19.17
2023-02-21T19:54:32.654Z,23.95
2023-02-21T19:57:04.259Z,18.00
2023-02-21T19:59:37.080Z,14.93
2023-02-21T20:02:22.119Z,19.58
2023-02-21T20:04:53.651Z,18.60
2023-02-21T20:07:37.161Z,18.70
2023-02-21T20:10:26.626Z,21.60
2023-02-21T20:13:06.686Z,22.00
2023-02-21T20:15:49.213Z,21.02
2023-02-21T20:18:55.968Z,24.35
2023-02-21T20:22:03.214Z,21.63
2023-02-21T20:24:40.752Z,24.08
2023-02-21T20:27:08.697Z,24.85
2023-02-21T20:29:45.171Z,25.02
2023-02-21T20:32:22.637Z,20.55
2023-02-21T20:34:57.072Z,19.20
2023-02-21T20:37:35.214Z,17.95
2023-02-21T20:40:12.194Z,17.77
2023-02-21T20:42:48.706Z,18.00
2023-02-21T20:45:25.748Z,18.20
2023-02-21T20:48:03.099Z,16.40
2023-02-21T20:50:46.394Z,15.70
2023-02-21T20:55:59.337Z,21.33
2023-02-21T20:58:30.093Z,16.70
2023-02-21T21:01:01.055Z,15.38
2023-02-21T21:03:33.580Z,17.02
2023-02-21T21:06:15.076Z,19.40
2023-02-21T21:08:43.501Z,21.13
2023-02-21T21:11:14.963Z,25.38
2023-02-21T21:13:57.560Z,25.42
2023-02-21T21:16:37.637Z,23.45
2023-02-21T21:19:16.295Z,25.75
2023-02-21T21:24:51.660Z,18.55
2023-02-21T21:27:23.963Z,20.08
2023-02-21T21:30:02.979Z,18.77
2023-02-21T21:32:33.416Z,18.83
2023-02-21T21:35:08.818Z,23.65
2023-02-21T21:37:44.879Z,20.85
2023-02-21T21:40:24.221Z,18.98
2023-02-21T21:43:02.578Z,17.38
2023-02-21T21:45:44.555Z,19.52
2023-02-21T21:48:18.981Z,19.02
2023-02-21T21:50:54.445Z,21.95
2023-02-21T21:53:28.046Z,19.08
2023-02-21T21:56:04.806Z,16.30
2023-02-21T21:58:38.424Z,16.10
2023-02-21T22:01:05.981Z,18.25
2023-02-21T22:04:02.177Z,18.20
2023-02-21T22:06:36.838Z,18.83
2023-02-21T22:09:07.644Z,22.83
2023-02-21T22:11:38.720Z,15.48
2023-02-21T22:14:08.310Z,18.02
2023-02-21T22:16:40.353Z,17.45
2023-02-21T22:19:07.782Z,16.80
2023-02-21T22:21:37.225Z,15.25
2023-02-21T22:24:13.765Z,18.77
2023-02-21T22:26:53.422Z,16.10
2023-02-21T22:29:22.842Z,17.33
2023-02-21T22:35:03.474Z,14.52
2023-02-21T22:38:28.071Z,15.70
2023-02-21T22:41:11.295Z,15.63
2023-02-21T22:44:17.640Z,16.55
2023-02-21T22:46:59.743Z,17.70
2023-02-21T22:49:31.049Z,11.35
2023-02-21T22:51:58.144Z,15.57
2023-02-21T22:54:34.789Z,14.73
2023-02-21T22:57:07.569Z,13.18
2023-02-21T22:59:35.959Z,14.65
2023-02-21T23:02:03.333Z,14.98
2023-02-21T23:04:59.039Z,11.95
2023-02-21T23:07:43.770Z,11.68
2023-02-21T23:12:52.873Z,9.35
2023-02-21T23:15:26.647Z,10.40
2023-02-21T23:17:58.102Z,10.80
2023-02-21T23:20:31.423Z,10.23
2023-02-21T23:23:04.612Z,9.65
2023-02-21T23:25:35.875Z,9.45
2023-02-21T23:28:09.248Z,11.02
2023-02-21T23:30:42.858Z,7.60
2023-02-21T23:33:34.076Z,9.50
2023-02-21T23:36:15.048Z,8.48
2023-02-21T23:38:50.702Z,10.95
2023-02-21T23:41:20.925Z,8.57
2023-02-21T23:43:51.792Z,11.27
2023-02-21T23:46:25.192Z,10.15
2023-02-21T23:48:57.780Z,11.02
2023-02-21T23:51:30.465Z,9.80
2023-02-21T23:54:01.063Z,9.35
2023-02-21T23:56:31.738Z,10.38
2023-02-21T23:59:01.611Z,8.38
